createdAt,value
2023-11-23T00:00:08.833Z,5.680
2023-11-23T00:01:08.781Z,5.440
2023-11-23T00:02:09.721Z,6.000
2023-11-23T00:03:08.767Z,5.520
2023-11-23T00:04:09.607Z,5.560
2023-11-23T00:05:09.359Z,6.320
2023-11-23T00:06:09.091Z,5.000
2023-11-23T00:09:08.979Z,5.360
2023-11-23T00:11:09.226Z,5.400
2023-11-23T00:12:08.881Z,5.280
2023-11-23T00:13:09.588Z,5.351
2023-11-23T00:15:08.744Z,6.400
2023-11-23T00:16:09.801Z,4.721
2023-11-23T00:17:09.397Z,3.254
2023-11-23T00:19:08.997Z,3.760
2023-11-23T00:20:09.446Z,5.680
2023-11-23T00:21:09.183Z,4.000
2023-11-23T00:22:08.822Z,4.280
2023-11-23T00:23:09.278Z,3.680
2023-11-23T00:24:08.876Z,3.840
2023-11-23T00:25:09.656Z,3.895
2023-11-23T00:26:09.118Z,4.393
2023-11-23T00:27:09.735Z,4.800
2023-11-23T00:28:09.596Z,4.353
2023-11-23T00:31:09.528Z,5.166
2023-11-23T00:32:09.055Z,4.440
2023-11-23T00:33:09.850Z,4.800
2023-11-23T00:34:09.283Z,4.068
2023-11-23T00:35:09.220Z,4.960
2023-11-23T00:36:08.752Z,6.760
2023-11-23T00:37:09.463Z,4.120
2023-11-23T00:38:08.980Z,5.440
2023-11-23T00:39:09.654Z,6.480
2023-11-23T00:40:09.634Z,6.413
2023-11-23T00:41:09.145Z,6.061
2023-11-23T00:43:08.925Z,3.800
2023-11-23T00:44:09.466Z,5.360
2023-11-23T00:45:09.175Z,5.960
2023-11-23T00:48:09.463Z,5.369
2023-11-23T00:49:09.422Z,2.600
2023-11-23T00:50:08.941Z,1.840
2023-11-23T00:51:09.581Z,2.520
2023-11-23T00:52:09.254Z,4.000
2023-11-23T00:54:09.376Z,6.280
2023-11-23T00:55:09.115Z,4.600
2023-11-23T00:58:09.059Z,2.640
2023-11-23T00:59:09.542Z,4.080
2023-11-23T01:00:09.186Z,3.320
2023-11-23T01:01:09.206Z,5.480
2023-11-23T01:02:09.499Z,5.920
2023-11-23T01:04:09.543Z,5.800
2023-11-23T01:06:08.885Z,5.440
2023-11-23T01:07:09.459Z,5.640
2023-11-23T01:08:08.965Z,6.600
2023-11-23T01:09:08.808Z,6.480
2023-11-23T01:10:09.343Z,6.080
2023-11-23T01:11:08.887Z,6.240
2023-11-23T01:12:09.425Z,6.080
2023-11-23T01:14:09.181Z,4.200
2023-11-23T01:15:08.933Z,5.160
2023-11-23T01:16:09.537Z,5.548
2023-11-23T01:17:09.165Z,4.515
2023-11-23T01:20:09.143Z,3.824
2023-11-23T01:21:08.747Z,4.240
2023-11-23T01:22:09.581Z,5.390
2023-11-23T01:23:09.134Z,5.898
2023-11-23T01:24:08.673Z,6.520
2023-11-23T01:25:09.388Z,6.960
2023-11-23T01:26:08.889Z,5.800
2023-11-23T01:27:09.503Z,2.600
2023-11-23T01:30:09.332Z,5.369
2023-11-23T01:31:09.143Z,3.560
2023-11-23T01:32:09.651Z,3.620
2023-11-23T01:33:09.291Z,4.475
2023-11-23T01:34:09.656Z,3.640
2023-11-23T01:36:08.904Z,4.240
2023-11-23T01:37:09.436Z,5.360
2023-11-23T01:38:08.947Z,4.360
2023-11-23T01:39:09.597Z,2.880
2023-11-23T01:40:09.314Z,5.880
2023-11-23T01:42:09.762Z,5.160
2023-11-23T01:44:09.137Z,6.280
2023-11-23T01:45:09.725Z,3.620
2023-11-23T01:46:09.620Z,4.920
2023-11-23T01:48:09.337Z,5.120
2023-11-23T01:49:09.330Z,3.080
2023-11-23T01:50:08.822Z,2.600
2023-11-23T01:51:09.845Z,4.131
2023-11-23T01:52:09.553Z,3.986
2023-11-23T01:53:09.149Z,4.800
2023-11-23T01:54:09.690Z,5.272
2023-11-23T01:55:09.479Z,5.044
2023-11-23T01:56:08.989Z,5.800
2023-11-23T01:57:09.563Z,5.320
2023-11-23T01:59:08.719Z,4.560
2023-11-23T02:00:09.335Z,4.040
2023-11-23T02:01:09.202Z,7.160
2023-11-23T02:03:09.976Z,3.580
2023-11-23T02:04:08.952Z,5.573
2023-11-23T02:07:09.167Z,5.080
2023-11-23T02:08:09.634Z,8.184
2023-11-23T02:09:09.183Z,5.044
2023-11-23T02:10:09.047Z,6.960
2023-11-23T02:11:09.631Z,4.446
2023-11-23T02:13:09.004Z,6.520
2023-11-23T02:14:09.520Z,4.320
2023-11-23T02:15:09.080Z,8.200
2023-11-23T02:16:09.354Z,7.960
2023-11-23T02:18:09.634Z,4.880
2023-11-23T02:19:08.673Z,4.000
2023-11-23T02:20:09.266Z,6.000
2023-11-23T02:23:09.048Z,4.120
2023-11-23T02:24:09.664Z,5.587
2023-11-23T02:25:09.524Z,3.946
2023-11-23T02:27:09.600Z,4.210
2023-11-23T02:29:09.084Z,4.759
2023-11-23T02:30:09.702Z,5.548
2023-11-23T02:31:09.746Z,4.560
2023-11-23T02:32:09.457Z,5.939
2023-11-23T02:33:09.084Z,7.680
2023-11-23T02:34:09.389Z,7.440
2023-11-23T02:35:08.836Z,4.200
2023-11-23T02:36:09.412Z,5.240
2023-11-23T02:37:09.169Z,6.080
2023-11-23T02:38:08.706Z,6.080
2023-11-23T02:39:09.357Z,4.040
2023-11-23T02:40:09.103Z,7.360
2023-11-23T02:41:09.611Z,4.603
2023-11-23T02:43:09.092Z,5.240
2023-11-23T02:44:09.649Z,5.430
2023-11-23T02:45:09.247Z,4.963
2023-11-23T02:47:08.936Z,6.040
2023-11-23T02:48:09.708Z,4.200
2023-11-23T02:49:08.707Z,5.160
2023-11-23T02:50:09.177Z,5.320
2023-11-23T02:51:08.704Z,5.680
2023-11-23T02:52:09.455Z,6.240
2023-11-23T02:53:09.006Z,7.120
2023-11-23T02:54:09.618Z,6.160
2023-11-23T02:55:09.357Z,6.160
2023-11-23T02:57:09.454Z,8.160
2023-11-23T02:58:09.149Z,4.840
2023-11-23T02:59:09.650Z,4.013
2023-11-23T03:00:09.307Z,2.644
2023-11-23T03:01:09.371Z,5.520
2023-11-23T03:02:09.104Z,4.360
2023-11-23T03:03:09.274Z,4.280
2023-11-23T03:04:09.490Z,4.040
2023-11-23T03:06:08.955Z,6.320
2023-11-23T03:07:08.846Z,5.840
2023-11-23T03:08:09.337Z,4.360
2023-11-23T03:09:08.937Z,4.320
2023-11-23T03:10:09.068Z,4.280
2023-11-23T03:11:09.569Z,4.960
2023-11-23T03:12:09.118Z,5.440
2023-11-23T03:15:09.038Z,3.320
2023-11-23T03:17:09.583Z,6.040
2023-11-23T03:18:12.875Z,7.320
2023-11-23T03:19:09.457Z,5.840
2023-11-23T03:21:08.917Z,5.000
2023-11-23T03:22:09.692Z,3.344
2023-11-23T03:23:09.238Z,4.841
2023-11-23T03:26:09.151Z,5.980
2023-11-23T03:27:09.751Z,3.974
2023-11-23T03:28:09.501Z,3.946
2023-11-23T03:31:09.431Z,6.142
2023-11-23T03:32:08.859Z,5.920
2023-11-23T03:33:09.657Z,5.040
2023-11-23T03:34:09.693Z,8.026
2023-11-23T03:35:09.454Z,4.068
2023-11-23T03:36:09.078Z,5.880
2023-11-23T03:37:08.733Z,7.000
2023-11-23T03:38:09.252Z,5.920
2023-11-23T03:40:09.506Z,6.840
2023-11-23T03:43:09.548Z,6.468
2023-11-23T03:44:09.114Z,5.240
2023-11-23T03:45:09.700Z,7.475
2023-11-23T03:46:09.776Z,6.753
2023-11-23T03:48:09.463Z,7.281
2023-11-23T03:49:09.461Z,4.720
2023-11-23T03:50:08.930Z,5.080
2023-11-23T03:51:09.646Z,6.480
2023-11-23T03:53:09.067Z,4.027
2023-11-23T03:54:09.795Z,4.289
2023-11-23T03:55:08.740Z,7.892
2023-11-23T03:56:09.224Z,7.520
2023-11-23T03:57:08.763Z,5.080
2023-11-23T03:58:09.516Z,6.480
2023-11-23T03:59:09.047Z,5.280
2023-11-23T04:00:09.818Z,4.564
2023-11-23T04:03:09.055Z,6.680
2023-11-23T04:04:09.045Z,4.800
2023-11-23T04:05:08.794Z,2.360
2023-11-23T04:06:09.290Z,3.520
2023-11-23T04:09:09.089Z,3.824
2023-11-23T04:12:08.950Z,6.360
2023-11-23T04:14:09.415Z,4.920
2023-11-23T04:15:08.920Z,2.240
2023-11-23T04:18:09.232Z,3.986
2023-11-23T04:19:09.201Z,4.320
2023-11-23T04:20:08.676Z,4.360
2023-11-23T04:21:09.532Z,6.160
2023-11-23T04:22:09.402Z,5.160
2023-11-23T04:23:08.893Z,8.160
2023-11-23T04:24:09.528Z,7.440
2023-11-23T04:25:09.200Z,7.240
2023-11-23T04:26:08.733Z,5.760
2023-11-23T04:27:09.373Z,5.360
2023-11-23T04:28:09.412Z,4.960
2023-11-23T04:29:08.935Z,6.960
2023-11-23T04:30:09.561Z,6.400
2023-11-23T04:31:09.349Z,4.240
2023-11-23T04:33:09.566Z,3.320
2023-11-23T04:34:09.387Z,2.600
2023-11-23T04:35:09.479Z,3.880
2023-11-23T04:37:09.085Z,3.800
2023-11-23T04:38:09.591Z,4.210
2023-11-23T04:39:09.177Z,8.827
2023-11-23T04:40:09.087Z,6.200
2023-11-23T04:41:09.569Z,3.920
2023-11-23T04:42:09.116Z,2.840
2023-11-23T04:45:09.124Z,3.905
2023-11-23T04:46:08.895Z,3.880
2023-11-23T04:47:09.612Z,5.272
2023-11-23T04:48:09.385Z,5.898
2023-11-23T04:49:09.689Z,3.502
2023-11-23T04:50:09.305Z,6.631
2023-11-23T04:52:08.764Z,5.480
2023-11-23T04:53:09.309Z,4.040
2023-11-23T04:54:08.895Z,4.640
2023-11-23T04:55:09.657Z,4.249
2023-11-23T04:56:09.165Z,5.532
2023-11-23T04:58:09.620Z,5.311
2023-11-23T04:59:09.445Z,6.264
2023-11-23T05:02:08.978Z,6.360
2023-11-23T05:03:08.956Z,4.640
2023-11-23T05:04:10.665Z,4.440
2023-11-23T05:07:08.884Z,2.280
2023-11-23T05:08:09.602Z,4.210
2023-11-23T05:09:09.194Z,5.451
2023-11-23T05:12:08.947Z,4.480
2023-11-23T05:15:08.990Z,3.760
2023-11-23T05:17:09.499Z,6.880
2023-11-23T05:18:09.107Z,6.400
2023-11-23T05:19:09.208Z,5.600
2023-11-23T05:20:09.583Z,3.148
2023-11-23T05:21:09.107Z,3.295
2023-11-23T05:22:08.811Z,2.440
2023-11-23T05:23:09.232Z,1.600
2023-11-23T05:24:08.826Z,4.000
2023-11-23T05:25:09.611Z,3.226
2023-11-23T05:28:09.450Z,3.320
2023-11-23T05:29:09.013Z,4.120
2023-11-23T05:30:09.605Z,4.446
2023-11-23T05:31:09.653Z,5.600
2023-11-23T05:33:09.088Z,3.080
2023-11-23T05:34:09.304Z,3.240
2023-11-23T05:35:08.978Z,0.560
2023-11-23T05:36:09.623Z,1.840
2023-11-23T05:39:09.498Z,3.360
2023-11-23T05:40:09.638Z,1.240
2023-11-23T05:41:09.674Z,0.433
2023-11-23T05:42:09.336Z,0.651
2023-11-23T05:43:10.405Z,1.731
2023-11-23T05:44:09.016Z,2.644
2023-11-23T05:45:09.589Z,3.320
2023-11-23T05:46:11.750Z,5.000
2023-11-23T05:49:09.541Z,2.280
2023-11-23T05:50:09.001Z,4.640
2023-11-23T05:51:09.498Z,1.960
2023-11-23T05:54:09.498Z,2.400
2023-11-23T05:55:09.300Z,3.920
2023-11-23T05:57:09.439Z,5.720
2023-11-23T05:58:09.161Z,5.560
2023-11-23T06:00:09.283Z,3.960
2023-11-23T06:01:12.294Z,3.840
2023-11-23T06:02:09.371Z,3.320
2023-11-23T06:03:09.512Z,2.840
2023-11-23T06:04:09.735Z,1.800
2023-11-23T06:05:09.932Z,2.840
2023-11-23T06:06:08.993Z,2.200
2023-11-23T06:09:08.798Z,3.200
2023-11-23T06:10:09.581Z,5.784
2023-11-23T06:11:09.105Z,5.898
2023-11-23T06:12:09.638Z,3.541
2023-11-23T06:15:09.462Z,5.280
2023-11-23T06:16:09.537Z,4.520
2023-11-23T06:17:09.217Z,4.040
2023-11-23T06:18:14.381Z,5.360
2023-11-23T06:20:09.228Z,4.320
2023-11-23T06:21:09.054Z,5.280
2023-11-23T06:22:08.810Z,6.680
2023-11-23T06:23:09.374Z,6.720
2023-11-23T06:24:09.003Z,4.840
2023-11-23T06:26:09.232Z,6.080
2023-11-23T06:27:08.817Z,4.880
2023-11-23T06:28:15.067Z,6.920
2023-11-23T06:29:09.338Z,3.120
2023-11-23T06:30:08.946Z,8.400
2023-11-23T06:31:09.631Z,5.784
2023-11-23T06:32:09.220Z,6.386
2023-11-23T06:34:09.277Z,3.120
2023-11-23T06:35:08.728Z,2.920
2023-11-23T06:36:09.320Z,4.920
2023-11-23T06:37:09.383Z,3.800
2023-11-23T06:38:08.907Z,5.520
2023-11-23T06:39:09.575Z,3.080
2023-11-23T06:40:09.302Z,4.040
2023-11-23T06:42:09.474Z,5.880
2023-11-23T06:43:09.335Z,6.320
2023-11-23T06:46:09.537Z,4.200
2023-11-23T06:48:09.301Z,2.720
2023-11-23T06:49:12.041Z,5.400
2023-11-23T06:51:09.134Z,3.864
2023-11-23T06:53:09.425Z,4.520
2023-11-23T06:54:09.000Z,4.760
2023-11-23T06:57:09.045Z,2.800
2023-11-23T06:59:08.841Z,5.720
2023-11-23T07:00:09.530Z,5.080
2023-11-23T07:01:09.676Z,4.761
2023-11-23T07:02:09.441Z,4.881
2023-11-23T07:03:09.548Z,5.040
2023-11-23T07:05:08.887Z,7.480
2023-11-23T07:06:09.605Z,7.040
2023-11-23T07:07:08.797Z,6.360
2023-11-23T07:08:09.656Z,7.279
2023-11-23T07:09:10.370Z,5.247
2023-11-23T07:10:09.075Z,5.720
2023-11-23T07:12:09.669Z,4.407
2023-11-23T07:14:09.709Z,3.336
2023-11-23T07:15:08.934Z,5.440
2023-11-23T07:16:09.050Z,5.320
2023-11-23T07:18:08.770Z,6.960
2023-11-23T07:19:09.520Z,5.960
2023-11-23T07:20:09.105Z,5.800
2023-11-23T07:21:09.697Z,6.885
2023-11-23T07:22:08.800Z,5.532
2023-11-23T07:23:09.445Z,5.440
2023-11-23T07:25:08.741Z,5.720
2023-11-23T07:26:09.342Z,6.480
2023-11-23T07:27:08.889Z,6.760
2023-11-23T07:30:09.182Z,5.040
2023-11-23T07:32:09.531Z,4.680
2023-11-23T07:33:09.319Z,2.120
2023-11-23T07:34:09.478Z,3.000
2023-11-23T07:35:09.383Z,5.480
2023-11-23T07:36:08.994Z,7.680
2023-11-23T07:37:08.748Z,6.520
2023-11-23T07:38:09.432Z,5.680
2023-11-23T07:39:09.616Z,5.941
2023-11-23T07:40:09.470Z,6.020
2023-11-23T07:41:09.109Z,6.560
2023-11-23T07:42:09.868Z,9.403
2023-11-23T07:43:09.546Z,5.736
2023-11-23T07:45:09.685Z,7.397
2023-11-23T07:46:08.669Z,3.905
2023-11-23T07:47:09.580Z,5.626
2023-11-23T07:48:09.262Z,5.288
2023-11-23T07:50:08.699Z,6.760
2023-11-23T07:51:09.235Z,5.480
2023-11-23T07:52:08.925Z,6.360
2023-11-23T07:53:09.525Z,7.560
2023-11-23T07:54:09.031Z,7.320
2023-11-23T07:57:08.998Z,5.840
2023-11-23T07:58:09.011Z,6.040
2023-11-23T07:59:08.995Z,1.800
2023-11-23T08:00:10.309Z,2.720
2023-11-23T08:01:09.470Z,6.080
2023-11-23T08:03:09.763Z,6.256
2023-11-23T08:04:08.938Z,4.068
2023-11-23T08:05:09.452Z,4.720
2023-11-23T08:06:09.252Z,8.080
2023-11-23T08:07:09.466Z,6.880
2023-11-23T08:08:09.081Z,4.680
2023-11-23T08:09:09.777Z,4.131
2023-11-23T08:10:09.564Z,4.760
2023-11-23T08:12:09.675Z,5.626
2023-11-23T08:14:09.151Z,8.746
2023-11-23T08:16:08.860Z,7.120
2023-11-23T08:17:09.487Z,7.360
2023-11-23T08:18:09.270Z,8.840
2023-11-23T08:19:09.265Z,7.920
2023-11-23T08:20:09.366Z,5.200
2023-11-23T08:22:09.582Z,6.610
2023-11-23T08:23:09.422Z,6.427
2023-11-23T08:24:09.012Z,7.000
2023-11-23T08:25:08.737Z,5.320
2023-11-23T08:26:09.280Z,5.960
2023-11-23T08:28:09.564Z,5.233
2023-11-23T08:29:09.208Z,4.353
2023-11-23T08:32:08.901Z,4.840
2023-11-23T08:33:09.785Z,3.895
2023-11-23T08:34:08.673Z,6.183
2023-11-23T08:35:09.157Z,6.800
2023-11-23T08:37:08.693Z,7.120
2023-11-23T08:38:09.326Z,7.120
2023-11-23T08:39:09.021Z,6.760
2023-11-23T08:40:08.715Z,5.760
2023-11-23T08:41:09.309Z,7.160
2023-11-23T08:42:08.910Z,9.280
2023-11-23T08:43:08.701Z,4.680
2023-11-23T08:44:09.395Z,4.360
2023-11-23T08:45:09.589Z,4.640
2023-11-23T08:47:09.336Z,8.520
2023-11-23T08:48:08.909Z,6.400
2023-11-23T08:49:08.954Z,6.360
2023-11-23T08:50:09.452Z,6.480
2023-11-23T08:51:09.001Z,7.800
2023-11-23T08:53:09.617Z,7.360
2023-11-23T08:54:09.142Z,4.880
2023-11-23T08:57:09.018Z,2.480
2023-11-23T08:58:09.683Z,7.043
2023-11-23T08:59:09.147Z,5.532
2023-11-23T09:02:20.241Z,6.531
2023-11-23T09:03:09.756Z,7.769
2023-11-23T09:04:09.869Z,8.360
2023-11-23T09:05:09.458Z,3.640
2023-11-23T09:06:09.000Z,8.240
2023-11-23T09:07:09.008Z,6.880
2023-11-23T09:08:09.151Z,5.240
2023-11-23T09:09:09.692Z,7.515
2023-11-23T09:10:09.358Z,5.980
2023-11-23T09:11:08.998Z,5.240
2023-11-23T09:12:09.673Z,5.311
2023-11-23T09:14:08.962Z,8.400
2023-11-23T09:15:09.617Z,6.520
2023-11-23T09:16:09.649Z,6.059
2023-11-23T09:17:09.252Z,6.468
2023-11-23T09:19:09.278Z,9.120
2023-11-23T09:20:09.094Z,8.320
2023-11-23T09:21:08.699Z,7.880
2023-11-23T09:22:09.392Z,9.920
2023-11-23T09:23:09.703Z,9.482
2023-11-23T09:24:09.319Z,8.217
2023-11-23T09:25:09.048Z,8.520
2023-11-23T09:26:09.567Z,10.151
2023-11-23T09:27:09.191Z,6.427
2023-11-23T09:28:08.844Z,7.480
2023-11-23T09:29:09.448Z,10.160
2023-11-23T09:31:08.942Z,11.880
2023-11-23T09:33:09.669Z,8.400
2023-11-23T09:34:09.423Z,11.880
2023-11-23T09:35:09.373Z,13.680
2023-11-23T09:36:09.042Z,14.840
2023-11-23T09:39:09.170Z,14.880
2023-11-23T09:40:09.587Z,10.780
2023-11-23T09:41:09.202Z,8.420
2023-11-23T09:44:08.992Z,8.120
2023-11-23T09:45:09.695Z,8.459
2023-11-23T09:46:08.945Z,9.885
2023-11-23T09:48:09.532Z,7.560
2023-11-23T09:49:09.387Z,9.480
2023-11-23T09:50:08.942Z,7.600
2023-11-23T09:51:08.718Z,9.280
2023-11-23T09:52:09.525Z,10.280
2023-11-23T09:53:09.213Z,10.720
2023-11-23T09:54:09.175Z,5.520
2023-11-23T09:55:08.895Z,4.400
2023-11-23T09:56:09.389Z,6.000
2023-11-23T09:57:08.955Z,5.320
2023-11-23T09:59:09.285Z,6.480
2023-11-23T10:00:08.910Z,8.520
2023-11-23T10:02:10.794Z,6.880
2023-11-23T10:03:09.417Z,6.120
2023-11-23T10:04:09.029Z,6.320
2023-11-23T10:05:09.428Z,8.040
2023-11-23T10:06:09.221Z,6.680
2023-11-23T10:09:09.261Z,9.437
2023-11-23T10:10:08.915Z,6.360
2023-11-23T10:11:09.501Z,7.240
2023-11-23T10:12:09.213Z,6.320
2023-11-23T10:13:08.845Z,6.480
2023-11-23T10:15:09.459Z,5.360
2023-11-23T10:16:09.598Z,5.680
2023-11-23T10:17:09.599Z,4.525
2023-11-23T10:18:09.268Z,6.264
2023-11-23T10:19:09.435Z,6.160
2023-11-23T10:20:09.008Z,8.880
2023-11-23T10:21:08.684Z,7.800
2023-11-23T10:22:09.495Z,6.040
2023-11-23T10:23:09.222Z,8.200
2023-11-23T10:25:08.707Z,8.280
2023-11-23T10:26:09.247Z,6.640
2023-11-23T10:27:09.085Z,13.000
2023-11-23T10:29:11.166Z,12.079
2023-11-23T10:30:08.817Z,11.512
2023-11-23T10:31:11.600Z,4.800
2023-11-23T10:32:08.774Z,6.360
2023-11-23T10:33:09.956Z,9.080
2023-11-23T10:34:09.302Z,14.240
2023-11-23T10:35:09.105Z,13.720
2023-11-23T10:36:09.832Z,9.128
2023-11-23T10:37:08.701Z,7.810
2023-11-23T10:38:09.279Z,9.920
2023-11-23T10:39:08.771Z,11.520
2023-11-23T10:40:09.465Z,12.080
2023-11-23T10:41:09.230Z,5.800
2023-11-23T10:43:09.466Z,7.920
2023-11-23T10:45:09.456Z,6.320
2023-11-23T10:46:09.303Z,9.160
2023-11-23T10:48:10.088Z,4.525
2023-11-23T10:49:09.420Z,4.108
2023-11-23T10:51:09.569Z,8.000
2023-11-23T10:52:09.334Z,7.200
2023-11-23T10:55:09.289Z,6.640
2023-11-23T10:56:09.999Z,7.400
2023-11-23T10:57:09.073Z,4.920
2023-11-23T10:58:09.561Z,5.720
2023-11-23T10:59:09.072Z,6.400
2023-11-23T11:00:09.772Z,7.790
2023-11-23T11:01:09.772Z,3.080
2023-11-23T11:02:09.645Z,3.864
2023-11-23T11:03:09.562Z,5.430
2023-11-23T11:04:09.779Z,4.312
2023-11-23T11:05:09.600Z,5.744
2023-11-23T11:06:09.201Z,5.044
2023-11-23T11:07:09.507Z,5.920
2023-11-23T11:08:09.367Z,6.960
2023-11-23T11:09:09.419Z,7.280
2023-11-23T11:11:08.745Z,9.400
2023-11-23T11:12:09.361Z,8.880
2023-11-23T11:13:09.220Z,10.720
2023-11-23T11:14:09.305Z,6.760
2023-11-23T11:15:08.955Z,9.480
2023-11-23T11:16:08.836Z,5.960
2023-11-23T11:17:09.432Z,5.440
2023-11-23T11:18:09.195Z,7.680
2023-11-23T11:19:09.399Z,5.160
2023-11-23T11:20:09.094Z,6.800
2023-11-23T11:21:09.936Z,13.141
2023-11-23T11:22:09.162Z,10.739
2023-11-23T11:24:09.475Z,7.680
2023-11-23T11:25:09.489Z,8.880
2023-11-23T11:26:09.277Z,9.800
2023-11-23T11:27:09.471Z,9.400
2023-11-23T11:29:08.774Z,10.880
2023-11-23T11:30:09.433Z,9.280
2023-11-23T11:31:09.690Z,8.640
2023-11-23T11:32:08.864Z,7.440
2023-11-23T11:33:09.700Z,12.520
2023-11-23T11:34:08.809Z,11.560
2023-11-23T11:35:09.603Z,10.033
2023-11-23T11:37:09.191Z,9.280
2023-11-23T11:38:09.000Z,10.400
2023-11-23T11:39:09.734Z,14.754
2023-11-23T11:40:09.602Z,11.400
2023-11-23T11:42:08.727Z,12.920
2023-11-23T11:43:08.797Z,10.440
2023-11-23T11:45:09.028Z,13.080
2023-11-23T11:46:09.138Z,16.800
2023-11-23T11:47:09.557Z,8.640
2023-11-23T11:48:09.362Z,10.080
2023-11-23T11:49:09.565Z,10.820
2023-11-23T11:50:09.313Z,11.675
2023-11-23T11:52:08.802Z,7.360
2023-11-23T11:53:09.493Z,7.360
2023-11-23T11:55:09.027Z,17.160
2023-11-23T11:56:09.627Z,13.377
2023-11-23T11:57:09.310Z,16.190
2023-11-23T12:00:09.393Z,15.120
2023-11-23T12:01:09.228Z,13.120
2023-11-23T12:03:09.554Z,11.640
2023-11-23T12:04:09.941Z,12.669
2023-11-23T12:05:09.012Z,9.437
2023-11-23T12:06:10.180Z,9.040
2023-11-23T12:07:09.055Z,10.440
2023-11-23T12:10:08.990Z,11.800
2023-11-23T12:11:09.552Z,12.960
2023-11-23T12:12:09.069Z,10.560
2023-11-23T12:15:08.916Z,7.560
2023-11-23T12:16:08.694Z,15.760
2023-11-23T12:17:09.347Z,10.800
2023-11-23T12:18:08.821Z,9.640
2023-11-23T12:19:08.692Z,6.200
2023-11-23T12:20:09.297Z,7.080
2023-11-23T12:21:08.900Z,7.800
2023-11-23T12:24:08.956Z,5.920
2023-11-23T12:25:08.707Z,6.240
2023-11-23T12:26:09.603Z,9.240
2023-11-23T12:27:09.224Z,9.600
2023-11-23T12:28:09.413Z,15.520
2023-11-23T12:29:09.533Z,11.480
2023-11-23T12:31:09.085Z,12.240
2023-11-23T12:33:09.641Z,11.480
2023-11-23T12:34:09.700Z,9.679
2023-11-23T12:35:09.217Z,11.959
2023-11-23T12:37:08.857Z,14.520
2023-11-23T12:38:09.586Z,10.190
2023-11-23T12:39:09.245Z,6.834
2023-11-23T12:40:09.017Z,14.680
2023-11-23T12:41:11.269Z,14.046
2023-11-23T12:42:09.001Z,10.820
2023-11-23T12:44:09.306Z,13.400
2023-11-23T12:45:08.884Z,13.920
2023-11-23T12:48:09.151Z,12.000
2023-11-23T12:49:09.112Z,7.080
2023-11-23T12:50:09.663Z,13.810
2023-11-23T12:51:09.401Z,10.780
2023-11-23T12:54:09.109Z,9.803
2023-11-23T12:57:08.910Z,8.120
2023-11-23T12:58:08.894Z,9.680
2023-11-23T12:59:09.407Z,8.360
2023-11-23T13:00:08.997Z,9.080
2023-11-23T13:04:09.833Z,14.880
2023-11-23T13:05:09.483Z,18.880
2023-11-23T13:08:09.605Z,11.803
2023-11-23T13:09:09.206Z,11.227
2023-11-23T13:10:09.253Z,8.440
2023-11-23T13:11:08.759Z,9.560
2023-11-23T13:12:09.604Z,9.720
2023-11-23T13:14:08.988Z,10.920
2023-11-23T13:15:09.781Z,12.157
2023-11-23T13:16:08.802Z,15.010
2023-11-23T13:17:09.563Z,12.440
2023-11-23T13:18:09.961Z,12.800
2023-11-23T13:19:16.916Z,12.200
2023-11-23T13:21:09.017Z,10.840
2023-11-23T13:22:08.900Z,10.080
2023-11-23T13:23:09.476Z,11.040
2023-11-23T13:24:09.017Z,7.720
2023-11-23T13:26:09.318Z,8.320
2023-11-23T13:27:08.901Z,9.280
2023-11-23T13:28:09.634Z,9.915
2023-11-23T13:29:09.258Z,8.217
2023-11-23T13:31:08.992Z,10.760
2023-11-23T13:32:09.669Z,8.341
2023-11-23T13:33:09.442Z,11.634
2023-11-23T13:34:08.677Z,12.120
2023-11-23T13:35:09.251Z,11.080
2023-11-23T13:36:09.106Z,13.120
2023-11-23T13:38:09.525Z,7.800
2023-11-23T13:39:11.824Z,7.560
2023-11-23T13:40:09.350Z,7.480
2023-11-23T13:41:08.859Z,7.000
2023-11-23T13:42:09.535Z,9.240
2023-11-23T13:43:09.404Z,12.440
2023-11-23T13:44:08.900Z,10.240
2023-11-23T13:45:09.555Z,12.800
2023-11-23T13:46:09.065Z,8.920
2023-11-23T13:47:09.070Z,10.360
2023-11-23T13:48:08.994Z,10.040
2023-11-23T13:49:09.213Z,11.880
2023-11-23T13:50:08.925Z,8.880
2023-11-23T13:51:09.580Z,11.600
2023-11-23T13:52:08.841Z,12.200
2023-11-23T13:53:09.445Z,7.440
2023-11-23T13:54:09.074Z,9.480
2023-11-23T13:57:09.092Z,5.560
2023-11-23T13:58:08.851Z,8.480
2023-11-23T13:59:09.357Z,11.480
2023-11-23T14:00:09.208Z,11.880
2023-11-23T14:02:09.045Z,9.880
2023-11-23T14:03:10.212Z,8.920
2023-11-23T14:04:09.449Z,5.960
2023-11-23T14:05:09.443Z,14.120
2023-11-23T14:07:08.742Z,10.040
2023-11-23T14:08:09.337Z,8.760
2023-11-23T14:09:08.987Z,5.800
2023-11-23T14:12:08.972Z,5.760
2023-11-23T14:14:09.438Z,7.640
2023-11-23T14:15:08.947Z,11.600
2023-11-23T14:17:09.596Z,9.246
2023-11-23T14:18:09.223Z,8.949
2023-11-23T14:19:09.389Z,9.400
2023-11-23T14:20:08.694Z,8.240
2023-11-23T14:21:09.291Z,5.000
2023-11-23T14:22:09.449Z,12.160
2023-11-23T14:23:09.089Z,11.080
2023-11-23T14:24:09.706Z,5.430
2023-11-23T14:25:09.528Z,6.264
2023-11-23T14:27:08.812Z,8.520
2023-11-23T14:28:09.659Z,7.908
2023-11-23T14:29:09.469Z,6.183
2023-11-23T14:30:09.102Z,6.840
2023-11-23T14:31:08.797Z,8.360
2023-11-23T14:32:09.476Z,6.640
2023-11-23T14:33:09.024Z,8.160
2023-11-23T14:34:09.343Z,5.840
2023-11-23T14:35:09.145Z,8.440
2023-11-23T14:36:09.928Z,7.239
2023-11-23T14:37:09.918Z,7.241
2023-11-23T14:38:09.570Z,7.240
2023-11-23T14:40:09.264Z,9.240
2023-11-23T14:41:08.756Z,6.680
2023-11-23T14:42:09.528Z,4.920
2023-11-23T14:43:09.340Z,5.880
2023-11-23T14:44:09.496Z,5.920
2023-11-23T14:45:09.160Z,7.640
2023-11-23T14:46:09.091Z,10.480
2023-11-23T14:47:08.922Z,7.840
2023-11-23T14:48:09.678Z,5.120
2023-11-23T14:49:08.791Z,8.600
2023-11-23T14:50:09.448Z,7.840
2023-11-23T14:51:09.081Z,8.200
2023-11-23T14:52:09.070Z,8.520
2023-11-23T14:53:09.591Z,8.223
2023-11-23T14:54:10.968Z,7.281
2023-11-23T14:55:09.690Z,6.925
2023-11-23T14:56:09.325Z,10.210
2023-11-23T14:57:09.506Z,10.120
2023-11-23T14:58:09.385Z,11.840
2023-11-23T14:59:08.951Z,8.920
2023-11-23T15:00:09.621Z,7.120
2023-11-23T15:01:09.404Z,7.720
2023-11-23T15:02:09.324Z,7.120
2023-11-23T15:03:09.599Z,8.720
2023-11-23T15:04:08.804Z,5.160
2023-11-23T15:05:09.103Z,7.040
2023-11-23T15:06:08.691Z,11.440
2023-11-23T15:07:09.538Z,11.440
2023-11-23T15:08:09.136Z,11.880
2023-11-23T15:10:09.560Z,9.720
2023-11-23T15:11:08.797Z,13.000
2023-11-23T15:12:09.434Z,10.960
2023-11-23T15:13:09.237Z,6.680
2023-11-23T15:14:09.479Z,13.160
2023-11-23T15:15:09.188Z,11.000
2023-11-23T15:16:09.541Z,4.200
2023-11-23T15:17:09.660Z,6.689
2023-11-23T15:18:09.259Z,10.251
2023-11-23T15:19:09.987Z,9.600
2023-11-23T15:20:09.553Z,7.161
2023-11-23T15:21:09.150Z,5.573
2023-11-23T15:22:08.908Z,8.000
2023-11-23T15:23:09.441Z,10.080
2023-11-23T15:25:13.775Z,4.880
2023-11-23T15:27:09.138Z,8.880
2023-11-23T15:28:08.792Z,5.680
2023-11-23T15:29:09.298Z,7.440
2023-11-23T15:30:08.953Z,8.360
2023-11-23T15:31:08.968Z,15.640
2023-11-23T15:32:09.121Z,13.400
2023-11-23T15:33:09.914Z,10.938
2023-11-23T15:34:09.126Z,8.014
2023-11-23T15:35:08.868Z,10.120
2023-11-23T15:36:09.717Z,6.964
2023-11-23T15:37:09.409Z,8.014
2023-11-23T15:41:08.991Z,9.760
2023-11-23T15:42:09.617Z,8.480
2023-11-23T15:43:09.473Z,7.440
2023-11-23T15:45:09.039Z,8.520
2023-11-23T15:46:08.912Z,7.200
2023-11-23T15:47:09.665Z,9.954
2023-11-23T15:48:09.485Z,14.400
2023-11-23T15:51:08.837Z,12.680
2023-11-23T15:52:09.515Z,8.400
2023-11-23T15:53:09.041Z,8.400
2023-11-23T15:54:09.666Z,11.843
2023-11-23T15:56:09.028Z,8.440
2023-11-23T15:57:09.616Z,12.440
2023-11-23T15:58:09.364Z,9.240
2023-11-23T16:00:09.590Z,12.840
2023-11-23T16:01:09.425Z,8.120
2023-11-23T16:05:08.900Z,7.800
2023-11-23T16:06:09.720Z,11.370
2023-11-23T16:07:09.533Z,9.966
2023-11-23T16:09:09.258Z,9.400
2023-11-23T16:10:09.104Z,8.360
2023-11-23T16:13:09.287Z,11.320
2023-11-23T16:14:09.055Z,11.920
2023-11-23T16:15:08.857Z,10.920
2023-11-23T16:16:08.828Z,8.600
2023-11-23T16:17:09.448Z,4.800
2023-11-23T16:18:09.192Z,6.280
2023-11-23T16:19:09.368Z,10.800
2023-11-23T16:20:09.053Z,15.000
2023-11-23T16:21:09.700Z,4.721
2023-11-23T16:22:09.624Z,2.040
2023-11-23T16:24:08.981Z,8.920